sensor_id;sensor_type;location;lat;lon;timestamp;P1;durP1;ratioP1;P2;durP2;ratioP2
12474;SDS011;6302;42.624;23.334;2023-08-21T00:01:29;6.07;;;4.93;;
12474;SDS011;6302;42.624;23.334;2023-08-21T00:03:56;6.82;;;5.07;;
12474;SDS011;6302;42.624;23.334;2023-08-21T00:06:23;7.28;;;5.15;;
12474;SDS011;6302;42.624;23.334;2023-08-21T00:08:49;5.30;;;4.90;;
12474;SDS011;6302;42.624;23.334;2023-08-21T00:11:16;5.07;;;4.68;;
12474;SDS011;6302;42.624;23.334;2023-08-21T00:13:43;5.30;;;4.80;;
12474;SDS011;6302;42.624;23.334;2023-08-21T00:16:14;7.30;;;4.65;;
12474;SDS011;6302;42.624;23.334;2023-08-21T00:18:41;12.25;;;5.45;;
12474;SDS011;6302;42.624;23.334;2023-08-21T00:21:08;6.38;;;5.20;;
12474;SDS011;6302;42.624;23.334;2023-08-21T00:23:34;5.18;;;4.78;;
12474;SDS011;6302;42.624;23.334;2023-08-21T00:26:01;5.70;;;5.10;;
12474;SDS011;6302;42.624;23.334;2023-08-21T00:28:28;7.75;;;4.72;;
12474;SDS011;6302;42.624;23.334;2023-08-21T00:30:59;5.60;;;5.13;;
12474;SDS011;6302;42.624;23.334;2023-08-21T00:33:29;5.33;;;4.93;;
12474;SDS011;6302;42.624;23.334;2023-08-21T00:35:57;5.85;;;5.18;;
12474;SDS011;6302;42.624;23.334;2023-08-21T00:38:24;5.43;;;4.97;;
12474;SDS011;6302;42.624;23.334;2023-08-21T00:40:51;6.37;;;4.67;;
12474;SDS011;6302;42.624;23.334;2023-08-21T00:43:18;6.68;;;4.78;;
12474;SDS011;6302;42.624;23.334;2023-08-21T00:45:45;5.72;;;5.22;;
12474;SDS011;6302;42.624;23.334;2023-08-21T00:48:13;5.38;;;4.68;;
12474;SDS011;6302;42.624;23.334;2023-08-21T00:50:42;5.65;;;5.20;;
12474;SDS011;6302;42.624;23.334;2023-08-21T00:53:10;5.80;;;5.30;;
12474;SDS011;6302;42.624;23.334;2023-08-21T00:55:37;6.25;;;5.63;;
12474;SDS011;6302;42.624;23.334;2023-08-21T00:58:05;5.70;;;5.10;;
12474;SDS011;6302;42.624;23.334;2023-08-21T01:00:32;5.82;;;5.22;;
12474;SDS011;6302;42.624;23.334;2023-08-21T01:03:01;5.70;;;5.20;;
12474;SDS011;6302;42.624;23.334;2023-08-21T01:05:28;5.80;;;5.27;;
12474;SDS011;6302;42.624;23.334;2023-08-21T01:07:59;6.30;;;5.40;;
12474;SDS011;6302;42.624;23.334;2023-08-21T01:10:32;4.97;;;4.57;;
12474;SDS011;6302;42.624;23.334;2023-08-21T01:13:11;5.75;;;5.22;;
12474;SDS011;6302;42.624;23.334;2023-08-21T01:15:46;6.60;;;4.82;;
12474;SDS011;6302;42.624;23.334;2023-08-21T01:18:16;6.95;;;5.35;;
12474;SDS011;6302;42.624;23.334;2023-08-21T01:20:44;7.50;;;4.93;;
12474;SDS011;6302;42.624;23.334;2023-08-21T01:23:25;5.32;;;4.80;;
12474;SDS011;6302;42.624;23.334;2023-08-21T01:25:59;4.90;;;4.50;;
12474;SDS011;6302;42.624;23.334;2023-08-21T01:28:26;5.60;;;5.00;;
12474;SDS011;6302;42.624;23.334;2023-08-21T01:30:55;5.57;;;5.07;;
12474;SDS011;6302;42.624;23.334;2023-08-21T01:33:25;5.10;;;4.43;;
12474;SDS011;6302;42.624;23.334;2023-08-21T01:35:55;6.70;;;5.30;;
12474;SDS011;6302;42.624;23.334;2023-08-21T01:38:25;5.72;;;4.68;;
12474;SDS011;6302;42.624;23.334;2023-08-21T01:40:53;5.40;;;5.00;;
12474;SDS011;6302;42.624;23.334;2023-08-21T01:43:20;5.23;;;4.83;;
12474;SDS011;6302;42.624;23.334;2023-08-21T01:45:46;5.70;;;5.17;;
12474;SDS011;6302;42.624;23.334;2023-08-21T01:48:13;5.35;;;4.85;;
12474;SDS011;6302;42.624;23.334;2023-08-21T01:50:40;5.50;;;5.00;;
12474;SDS011;6302;42.624;23.334;2023-08-21T01:53:07;7.90;;;4.95;;
12474;SDS011;6302;42.624;23.334;2023-08-21T01:55:35;7.40;;;4.80;;
12474;SDS011;6302;42.624;23.334;2023-08-21T01:58:01;5.88;;;5.00;;
12474;SDS011;6302;42.624;23.334;2023-08-21T02:00:28;5.57;;;5.07;;
12474;SDS011;6302;42.624;23.334;2023-08-21T02:02:55;7.30;;;4.90;;
12474;SDS011;6302;42.624;23.334;2023-08-21T02:05:22;6.55;;;4.55;;
12474;SDS011;6302;42.624;23.334;2023-08-21T02:07:49;5.22;;;4.68;;
12474;SDS011;6302;42.624;23.334;2023-08-21T02:10:15;5.80;;;5.20;;
12474;SDS011;6302;42.624;23.334;2023-08-21T02:12:43;7.35;;;4.70;;
12474;SDS011;6302;42.624;23.334;2023-08-21T02:15:10;5.40;;;4.95;;
12474;SDS011;6302;42.624;23.334;2023-08-21T02:17:37;6.13;;;4.65;;
12474;SDS011;6302;42.624;23.334;2023-08-21T02:20:04;6.95;;;5.13;;
12474;SDS011;6302;42.624;23.334;2023-08-21T02:22:31;6.55;;;4.80;;
12474;SDS011;6302;42.624;23.334;2023-08-21T02:24:58;6.57;;;5.22;;
12474;SDS011;6302;42.624;23.334;2023-08-21T02:27:25;6.70;;;5.90;;
12474;SDS011;6302;42.624;23.334;2023-08-21T02:29:53;6.20;;;5.67;;
12474;SDS011;6302;42.624;23.334;2023-08-21T02:32:20;7.05;;;5.60;;
12474;SDS011;6302;42.624;23.334;2023-08-21T02:34:46;8.00;;;5.40;;
12474;SDS011;6302;42.624;23.334;2023-08-21T02:37:13;10.23;;;5.07;;
12474;SDS011;6302;42.624;23.334;2023-08-21T02:39:40;5.07;;;4.67;;
12474;SDS011;6302;42.624;23.334;2023-08-21T02:42:07;5.82;;;5.00;;
12474;SDS011;6302;42.624;23.334;2023-08-21T02:44:36;5.03;;;4.53;;
12474;SDS011;6302;42.624;23.334;2023-08-21T02:47:04;7.30;;;4.90;;
12474;SDS011;6302;42.624;23.334;2023-08-21T02:49:31;6.18;;;5.13;;
12474;SDS011;6302;42.624;23.334;2023-08-21T02:51:58;6.50;;;5.30;;
12474;SDS011;6302;42.624;23.334;2023-08-21T02:54:24;5.93;;;5.15;;
12474;SDS011;6302;42.624;23.334;2023-08-21T02:56:51;7.17;;;5.00;;
12474;SDS011;6302;42.624;23.334;2023-08-21T02:59:18;5.53;;;5.03;;
12474;SDS011;6302;42.624;23.334;2023-08-21T03:01:45;5.80;;;5.23;;
12474;SDS011;6302;42.624;23.334;2023-08-21T03:04:13;7.33;;;5.43;;
12474;SDS011;6302;42.624;23.334;2023-08-21T03:06:40;5.77;;;5.27;;
12474;SDS011;6302;42.624;23.334;2023-08-21T03:09:06;5.73;;;5.13;;
12474;SDS011;6302;42.624;23.334;2023-08-21T03:11:33;7.67;;;5.70;;
12474;SDS011;6302;42.624;23.334;2023-08-21T03:14:00;7.22;;;5.53;;
12474;SDS011;6302;42.624;23.334;2023-08-21T03:16:27;6.23;;;5.43;;
12474;SDS011;6302;42.624;23.334;2023-08-21T03:18:54;5.60;;;5.10;;
12474;SDS011;6302;42.624;23.334;2023-08-21T03:21:23;9.33;;;5.50;;
12474;SDS011;6302;42.624;23.334;2023-08-21T03:23:53;5.40;;;4.97;;
12474;SDS011;6302;42.624;23.334;2023-08-21T03:26:21;6.50;;;5.47;;
12474;SDS011;6302;42.624;23.334;2023-08-21T03:28:48;5.27;;;4.87;;
12474;SDS011;6302;42.624;23.334;2023-08-21T03:31:15;6.73;;;5.80;;
12474;SDS011;6302;42.624;23.334;2023-08-21T03:33:42;6.10;;;5.50;;
12474;SDS011;6302;42.624;23.334;2023-08-21T03:36:08;5.93;;;5.40;;
12474;SDS011;6302;42.624;23.334;2023-08-21T03:38:37;6.27;;;4.97;;
12474;SDS011;6302;42.624;23.334;2023-08-21T03:41:03;6.50;;;5.57;;
12474;SDS011;6302;42.624;23.334;2023-08-21T03:43:31;7.10;;;5.57;;
12474;SDS011;6302;42.624;23.334;2023-08-21T03:45:58;6.23;;;5.40;;
12474;SDS011;6302;42.624;23.334;2023-08-21T03:48:24;6.30;;;5.80;;
12474;SDS011;6302;42.624;23.334;2023-08-21T03:50:51;6.00;;;5.40;;
12474;SDS011;6302;42.624;23.334;2023-08-21T03:53:18;7.50;;;5.57;;
12474;SDS011;6302;42.624;23.334;2023-08-21T03:55:46;7.07;;;5.60;;
12474;SDS011;6302;42.624;23.334;2023-08-21T03:58:13;5.90;;;5.23;;
12474;SDS011;6302;42.624;23.334;2023-08-21T04:00:40;6.20;;;5.60;;
12474;SDS011;6302;42.624;23.334;2023-08-21T04:03:07;7.63;;;5.40;;
12474;SDS011;6302;42.624;23.334;2023-08-21T04:05:33;5.63;;;5.13;;
12474;SDS011;6302;42.624;23.334;2023-08-21T04:08:00;6.93;;;5.27;;
12474;SDS011;6302;42.624;23.334;2023-08-21T04:10:27;7.60;;;5.65;;
12474;SDS011;6302;42.624;23.334;2023-08-21T04:12:55;5.20;;;4.80;;
12474;SDS011;6302;42.624;23.334;2023-08-21T04:15:22;7.97;;;5.30;;
12474;SDS011;6302;42.624;23.334;2023-08-21T04:17:49;6.10;;;5.40;;
12474;SDS011;6302;42.624;23.334;2023-08-21T04:20:15;9.30;;;5.30;;
12474;SDS011;6302;42.624;23.334;2023-08-21T04:22:42;5.88;;;5.30;;
12474;SDS011;6302;42.624;23.334;2023-08-21T04:25:09;5.88;;;5.30;;
12474;SDS011;6302;42.624;23.334;2023-08-21T04:27:36;5.87;;;5.27;;
12474;SDS011;6302;42.624;23.334;2023-08-21T04:30:08;9.60;;;5.60;;
12474;SDS011;6302;42.624;23.334;2023-08-21T04:32:36;8.27;;;5.65;;
12474;SDS011;6302;42.624;23.334;2023-08-21T04:35:02;6.68;;;5.97;;
12474;SDS011;6302;42.624;23.334;2023-08-21T04:37:30;6.20;;;5.10;;
12474;SDS011;6302;42.624;23.334;2023-08-21T04:39:57;8.80;;;5.60;;
12474;SDS011;6302;42.624;23.334;2023-08-21T04:42:24;6.00;;;4.88;;
12474;SDS011;6302;42.624;23.334;2023-08-21T04:44:50;6.75;;;5.60;;
12474;SDS011;6302;42.624;23.334;2023-08-21T04:47:22;6.63;;;5.97;;
12474;SDS011;6302;42.624;23.334;2023-08-21T04:49:51;8.63;;;5.70;;
12474;SDS011;6302;42.624;23.334;2023-08-21T04:52:18;10.20;;;6.30;;
12474;SDS011;6302;42.624;23.334;2023-08-21T04:54:45;6.47;;;5.80;;
12474;SDS011;6302;42.624;23.334;2023-08-21T04:57:12;9.60;;;5.43;;
12474;SDS011;6302;42.624;23.334;2023-08-21T04:59:39;6.60;;;5.93;;
12474;SDS011;6302;42.624;23.334;2023-08-21T05:02:06;8.43;;;5.90;;
12474;SDS011;6302;42.624;23.334;2023-08-21T05:04:35;6.60;;;6.00;;
12474;SDS011;6302;42.624;23.334;2023-08-21T05:07:03;8.73;;;6.20;;
12474;SDS011;6302;42.624;23.334;2023-08-21T05:09:30;10.27;;;6.80;;
12474;SDS011;6302;42.624;23.334;2023-08-21T05:11:57;8.35;;;6.63;;
12474;SDS011;6302;42.624;23.334;2023-08-21T05:14:24;11.77;;;6.78;;
12474;SDS011;6302;42.624;23.334;2023-08-21T05:16:51;12.73;;;7.10;;
12474;SDS011;6302;42.624;23.334;2023-08-21T05:19:18;12.35;;;7.68;;
12474;SDS011;6302;42.624;23.334;2023-08-21T05:21:46;11.83;;;7.70;;
12474;SDS011;6302;42.624;23.334;2023-08-21T05:24:13;12.33;;;8.03;;
12474;SDS011;6302;42.624;23.334;2023-08-21T05:26:40;18.33;;;8.33;;
12474;SDS011;6302;42.624;23.334;2023-08-21T05:29:07;8.73;;;7.50;;
12474;SDS011;6302;42.624;23.334;2023-08-21T05:31:34;16.93;;;8.80;;
12474;SDS011;6302;42.624;23.334;2023-08-21T05:34:01;20.43;;;9.20;;
12474;SDS011;6302;42.624;23.334;2023-08-21T05:36:27;14.15;;;8.50;;
12474;SDS011;6302;42.624;23.334;2023-08-21T05:38:56;12.97;;;7.87;;
12474;SDS011;6302;42.624;23.334;2023-08-21T05:41:23;12.25;;;8.32;;
12474;SDS011;6302;42.624;23.334;2023-08-21T05:43:50;9.63;;;7.60;;
12474;SDS011;6302;42.624;23.334;2023-08-21T05:46:17;10.30;;;7.43;;
12474;SDS011;6302;42.624;23.334;2023-08-21T05:48:43;12.93;;;7.47;;
12474;SDS011;6302;42.624;23.334;2023-08-21T05:51:10;11.60;;;7.50;;
12474;SDS011;6302;42.624;23.334;2023-08-21T05:53:37;10.17;;;7.90;;
12474;SDS011;6302;42.624;23.334;2023-08-21T05:56:05;9.50;;;7.27;;
12474;SDS011;6302;42.624;23.334;2023-08-21T05:58:32;9.63;;;7.82;;
12474;SDS011;6302;42.624;23.334;2023-08-21T06:00:59;11.48;;;7.60;;
12474;SDS011;6302;42.624;23.334;2023-08-21T06:03:26;12.63;;;7.40;;
12474;SDS011;6302;42.624;23.334;2023-08-21T06:05:52;9.27;;;7.00;;
12474;SDS011;6302;42.624;23.334;2023-08-21T06:08:19;10.88;;;6.95;;
12474;SDS011;6302;42.624;23.334;2023-08-21T06:10:50;10.32;;;6.93;;
12474;SDS011;6302;42.624;23.334;2023-08-21T06:13:19;11.00;;;6.55;;
12474;SDS011;6302;42.624;23.334;2023-08-21T06:15:46;9.75;;;7.00;;
12474;SDS011;6302;42.624;23.334;2023-08-21T06:18:13;13.40;;;6.93;;
12474;SDS011;6302;42.624;23.334;2023-08-21T06:20:41;9.57;;;6.90;;
12474;SDS011;6302;42.624;23.334;2023-08-21T06:23:08;11.52;;;7.72;;
12474;SDS011;6302;42.624;23.334;2023-08-21T06:25:36;12.13;;;7.15;;
12474;SDS011;6302;42.624;23.334;2023-08-21T06:28:03;10.98;;;7.45;;
12474;SDS011;6302;42.624;23.334;2023-08-21T06:30:31;9.93;;;7.43;;
12474;SDS011;6302;42.624;23.334;2023-08-21T06:32:58;8.57;;;7.05;;
12474;SDS011;6302;42.624;23.334;2023-08-21T06:35:25;7.45;;;6.43;;
12474;SDS011;6302;42.624;23.334;2023-08-21T06:37:51;13.23;;;7.00;;
12474;SDS011;6302;42.624;23.334;2023-08-21T06:40:19;16.30;;;7.03;;
12474;SDS011;6302;42.624;23.334;2023-08-21T06:42:46;8.07;;;6.25;;
12474;SDS011;6302;42.624;23.334;2023-08-21T06:45:14;9.57;;;6.60;;
12474;SDS011;6302;42.624;23.334;2023-08-21T06:47:44;7.60;;;5.88;;
12474;SDS011;6302;42.624;23.334;2023-08-21T06:50:15;10.05;;;6.20;;
12474;SDS011;6302;42.624;23.334;2023-08-21T06:52:42;12.38;;;5.82;;
12474;SDS011;6302;42.624;23.334;2023-08-21T06:55:09;9.98;;;6.22;;
12474;SDS011;6302;42.624;23.334;2023-08-21T06:57:36;7.20;;;6.13;;
12474;SDS011;6302;42.624;23.334;2023-08-21T07:00:03;12.50;;;6.45;;
12474;SDS011;6302;42.624;23.334;2023-08-21T07:02:31;8.43;;;5.38;;
12474;SDS011;6302;42.624;23.334;2023-08-21T07:05:00;7.53;;;6.00;;
12474;SDS011;6302;42.624;23.334;2023-08-21T07:07:26;9.73;;;5.93;;
12474;SDS011;6302;42.624;23.334;2023-08-21T07:09:53;9.13;;;6.15;;
12474;SDS011;6302;42.624;23.334;2023-08-21T07:12:21;14.80;;;6.97;;
12474;SDS011;6302;42.624;23.334;2023-08-21T07:14:48;8.73;;;6.15;;
12474;SDS011;6302;42.624;23.334;2023-08-21T07:17:15;10.60;;;6.30;;
12474;SDS011;6302;42.624;23.334;2023-08-21T07:19:42;8.50;;;6.38;;
12474;SDS011;6302;42.624;23.334;2023-08-21T07:22:10;9.02;;;6.57;;
12474;SDS011;6302;42.624;23.334;2023-08-21T07:24:36;9.63;;;6.70;;
12474;SDS011;6302;42.624;23.334;2023-08-21T07:27:03;6.57;;;5.47;;
12474;SDS011;6302;42.624;23.334;2023-08-21T07:29:30;12.05;;;6.35;;
12474;SDS011;6302;42.624;23.334;2023-08-21T07:31:57;8.07;;;5.93;;
12474;SDS011;6302;42.624;23.334;2023-08-21T07:34:24;8.40;;;5.82;;
12474;SDS011;6302;42.624;23.334;2023-08-21T07:36:50;8.02;;;5.93;;
12474;SDS011;6302;42.624;23.334;2023-08-21T07:39:19;6.97;;;5.68;;
12474;SDS011;6302;42.624;23.334;2023-08-21T07:41:45;9.50;;;5.55;;
12474;SDS011;6302;42.624;23.334;2023-08-21T07:44:12;7.65;;;5.60;;
12474;SDS011;6302;42.624;23.334;2023-08-21T07:46:39;7.75;;;6.05;;
12474;SDS011;6302;42.624;23.334;2023-08-21T07:49:05;9.35;;;6.80;;
12474;SDS011;6302;42.624;23.334;2023-08-21T07:51:32;10.60;;;5.93;;
12474;SDS011;6302;42.624;23.334;2023-08-21T07:53:59;6.15;;;5.60;;
12474;SDS011;6302;42.624;23.334;2023-08-21T07:56:27;12.57;;;5.72;;
12474;SDS011;6302;42.624;23.334;2023-08-21T07:58:54;9.43;;;5.85;;
12474;SDS011;6302;42.624;23.334;2023-08-21T08:01:21;9.18;;;6.10;;
12474;SDS011;6302;42.624;23.334;2023-08-21T08:03:47;12.30;;;6.00;;
12474;SDS011;6302;42.624;23.334;2023-08-21T08:06:15;9.68;;;6.40;;
12474;SDS011;6302;42.624;23.334;2023-08-21T08:08:42;7.93;;;5.57;;
12474;SDS011;6302;42.624;23.334;2023-08-21T08:11:08;9.43;;;5.60;;
12474;SDS011;6302;42.624;23.334;2023-08-21T08:13:36;5.90;;;5.30;;
12474;SDS011;6302;42.624;23.334;2023-08-21T08:16:04;5.65;;;5.15;;
12474;SDS011;6302;42.624;23.334;2023-08-21T08:18:30;7.95;;;5.90;;
12474;SDS011;6302;42.624;23.334;2023-08-21T08:20:57;6.43;;;5.03;;
12474;SDS011;6302;42.624;23.334;2023-08-21T08:23:24;8.05;;;6.40;;
12474;SDS011;6302;42.624;23.334;2023-08-21T08:25:51;9.35;;;5.80;;
12474;SDS011;6302;42.624;23.334;2023-08-21T08:28:18;8.35;;;5.70;;
12474;SDS011;6302;42.624;23.334;2023-08-21T08:30:46;10.20;;;5.60;;
12474;SDS011;6302;42.624;23.334;2023-08-21T08:33:13;7.65;;;5.50;;
12474;SDS011;6302;42.624;23.334;2023-08-21T08:35:40;7.03;;;5.28;;
12474;SDS011;6302;42.624;23.334;2023-08-21T08:38:07;9.23;;;5.85;;
12474;SDS011;6302;42.624;23.334;2023-08-21T08:40:34;8.85;;;5.13;;
12474;SDS011;6302;42.624;23.334;2023-08-21T08:43:08;6.20;;;5.50;;
12474;SDS011;6302;42.624;23.334;2023-08-21T08:45:34;7.13;;;5.63;;
12474;SDS011;6302;42.624;23.334;2023-08-21T08:48:05;6.35;;;5.15;;
12474;SDS011;6302;42.624;23.334;2023-08-21T08:50:33;6.55;;;5.72;;
12474;SDS011;6302;42.624;23.334;2023-08-21T08:53:00;8.13;;;4.85;;
12474;SDS011;6302;42.624;23.334;2023-08-21T08:55:27;6.80;;;5.20;;
12474;SDS011;6302;42.624;23.334;2023-08-21T08:57:55;7.55;;;5.63;;
12474;SDS011;6302;42.624;23.334;2023-08-21T09:00:22;5.25;;;4.75;;
12474;SDS011;6302;42.624;23.334;2023-08-21T09:02:49;7.25;;;6.47;;
12474;SDS011;6302;42.624;23.334;2023-08-21T09:05:17;5.43;;;4.93;;
12474;SDS011;6302;42.624;23.334;2023-08-21T09:07:44;8.52;;;5.43;;
12474;SDS011;6302;42.624;23.334;2023-08-21T09:10:14;6.22;;;5.07;;
12474;SDS011;6302;42.624;23.334;2023-08-21T09:12:44;5.25;;;4.80;;
12474;SDS011;6302;42.624;23.334;2023-08-21T09:15:11;9.10;;;5.07;;
12474;SDS011;6302;42.624;23.334;2023-08-21T09:17:38;9.90;;;5.70;;
12474;SDS011;6302;42.624;23.334;2023-08-21T09:20:05;8.32;;;5.30;;
12474;SDS011;6302;42.624;23.334;2023-08-21T09:22:34;8.38;;;5.05;;
12474;SDS011;6302;42.624;23.334;2023-08-21T09:25:02;7.88;;;4.85;;
12474;SDS011;6302;42.624;23.334;2023-08-21T09:27:32;6.68;;;4.95;;
12474;SDS011;6302;42.624;23.334;2023-08-21T09:29:59;7.95;;;5.22;;
12474;SDS011;6302;42.624;23.334;2023-08-21T09:32:27;5.65;;;4.88;;
12474;SDS011;6302;42.624;23.334;2023-08-21T09:34:54;6.18;;;5.60;;
12474;SDS011;6302;42.624;23.334;2023-08-21T09:37:20;8.40;;;5.70;;
12474;SDS011;6302;42.624;23.334;2023-08-21T09:39:56;9.95;;;5.10;;
12474;SDS011;6302;42.624;23.334;2023-08-21T09:42:28;10.70;;;5.35;;
12474;SDS011;6302;42.624;23.334;2023-08-21T09:44:55;6.68;;;5.32;;
12474;SDS011;6302;42.624;23.334;2023-08-21T09:47:22;6.20;;;5.15;;
12474;SDS011;6302;42.624;23.334;2023-08-21T09:49:52;8.68;;;5.30;;
12474;SDS011;6302;42.624;23.334;2023-08-21T09:52:19;5.65;;;5.05;;
12474;SDS011;6302;42.624;23.334;2023-08-21T09:54:46;6.97;;;5.30;;
12474;SDS011;6302;42.624;23.334;2023-08-21T09:57:15;6.20;;;4.70;;
12474;SDS011;6302;42.624;23.334;2023-08-21T09:59:42;6.80;;;5.28;;
12474;SDS011;6302;42.624;23.334;2023-08-21T10:02:10;5.40;;;4.90;;
12474;SDS011;6302;42.624;23.334;2023-08-21T10:04:37;8.32;;;5.07;;
12474;SDS011;6302;42.624;23.334;2023-08-21T10:07:09;6.75;;;4.70;;
12474;SDS011;6302;42.624;23.334;2023-08-21T10:09:36;6.03;;;4.70;;
12474;SDS011;6302;42.624;23.334;2023-08-21T10:12:06;14.02;;;5.47;;
12474;SDS011;6302;42.624;23.334;2023-08-21T10:14:37;5.43;;;4.65;;
12474;SDS011;6302;42.624;23.334;2023-08-21T10:17:03;6.20;;;5.18;;
12474;SDS011;6302;42.624;23.334;2023-08-21T10:19:33;7.30;;;4.95;;
12474;SDS011;6302;42.624;23.334;2023-08-21T10:22:01;5.30;;;4.78;;
12474;SDS011;6302;42.624;23.334;2023-08-21T10:24:28;8.77;;;4.90;;
12474;SDS011;6302;42.624;23.334;2023-08-21T10:27:00;5.55;;;4.95;;
12474;SDS011;6302;42.624;23.334;2023-08-21T10:29:27;7.50;;;5.38;;
12474;SDS011;6302;42.624;23.334;2023-08-21T10:32:00;5.15;;;4.68;;
12474;SDS011;6302;42.624;23.334;2023-08-21T10:34:31;9.88;;;5.00;;
12474;SDS011;6302;42.624;23.334;2023-08-21T10:37:03;8.10;;;5.03;;
12474;SDS011;6302;42.624;23.334;2023-08-21T10:39:32;6.63;;;4.63;;
12474;SDS011;6302;42.624;23.334;2023-08-21T10:42:03;6.55;;;4.65;;
12474;SDS011;6302;42.624;23.334;2023-08-21T10:44:34;5.40;;;4.25;;
12474;SDS011;6302;42.624;23.334;2023-08-21T10:47:16;5.50;;;5.00;;
12474;SDS011;6302;42.624;23.334;2023-08-21T10:49:45;7.80;;;4.85;;
12474;SDS011;6302;42.624;23.334;2023-08-21T10:52:13;5.88;;;4.50;;
12474;SDS011;6302;42.624;23.334;2023-08-21T10:54:46;12.57;;;5.10;;
12474;SDS011;6302;42.624;23.334;2023-08-21T10:57:14;6.00;;;4.45;;
12474;SDS011;6302;42.624;23.334;2023-08-21T10:59:54;8.40;;;4.80;;
12474;SDS011;6302;42.624;23.334;2023-08-21T11:02:23;4.65;;;4.28;;
12474;SDS011;6302;42.624;23.334;2023-08-21T11:04:52;6.80;;;4.57;;
12474;SDS011;6302;42.624;23.334;2023-08-21T11:07:19;8.05;;;5.03;;
12474;SDS011;6302;42.624;23.334;2023-08-21T11:09:46;5.22;;;4.30;;
12474;SDS011;6302;42.624;23.334;2023-08-21T11:12:15;4.85;;;4.43;;
12474;SDS011;6302;42.624;23.334;2023-08-21T11:14:43;5.22;;;4.18;;
12474;SDS011;6302;42.624;23.334;2023-08-21T11:17:10;5.22;;;4.72;;
12474;SDS011;6302;42.624;23.334;2023-08-21T11:19:39;8.23;;;4.70;;
12474;SDS011;6302;42.624;23.334;2023-08-21T11:22:07;5.45;;;4.90;;
12474;SDS011;6302;42.624;23.334;2023-08-21T11:24:41;6.00;;;4.80;;
12474;SDS011;6302;42.624;23.334;2023-08-21T11:27:09;7.13;;;4.40;;
12474;SDS011;6302;42.624;23.334;2023-08-21T11:29:38;6.68;;;4.40;;
12474;SDS011;6302;42.624;23.334;2023-08-21T11:32:09;4.90;;;4.50;;
12474;SDS011;6302;42.624;23.334;2023-08-21T11:34:36;5.13;;;4.72;;
12474;SDS011;6302;42.624;23.334;2023-08-21T11:37:05;8.60;;;5.10;;
12474;SDS011;6302;42.624;23.334;2023-08-21T11:39:39;5.70;;;5.05;;
12474;SDS011;6302;42.624;23.334;2023-08-21T11:42:09;5.30;;;4.28;;
12474;SDS011;6302;42.624;23.334;2023-08-21T11:44:44;5.20;;;4.78;;
12474;SDS011;6302;42.624;23.334;2023-08-21T11:47:12;4.90;;;4.28;;
12474;SDS011;6302;42.624;23.334;2023-08-21T11:49:40;5.78;;;4.57;;
12474;SDS011;6302;42.624;23.334;2023-08-21T11:52:10;8.27;;;4.63;;
12474;SDS011;6302;42.624;23.334;2023-08-21T11:54:38;5.15;;;4.57;;
12474;SDS011;6302;42.624;23.334;2023-08-21T11:57:07;7.38;;;4.45;;
12474;SDS011;6302;42.624;23.334;2023-08-21T11:59:35;4.53;;;4.13;;
12474;SDS011;6302;42.624;23.334;2023-08-21T12:02:08;4.95;;;4.50;;
12474;SDS011;6302;42.624;23.334;2023-08-21T12:04:36;6.88;;;4.22;;
12474;SDS011;6302;42.624;23.334;2023-08-21T12:07:03;5.50;;;4.43;;
12474;SDS011;6302;42.624;23.334;2023-08-21T12:09:31;6.80;;;4.75;;
12474;SDS011;6302;42.624;23.334;2023-08-21T12:11:58;5.15;;;4.28;;
12474;SDS011;6302;42.624;23.334;2023-08-21T12:14:25;4.63;;;4.22;;
12474;SDS011;6302;42.624;23.334;2023-08-21T12:16:52;9.73;;;4.68;;
12474;SDS011;6302;42.624;23.334;2023-08-21T12:19:19;7.00;;;4.93;;
12474;SDS011;6302;42.624;23.334;2023-08-21T12:21:46;5.72;;;4.90;;
12474;SDS011;6302;42.624;23.334;2023-08-21T12:24:13;4.82;;;4.40;;
12474;SDS011;6302;42.624;23.334;2023-08-21T12:26:41;4.80;;;4.30;;
12474;SDS011;6302;42.624;23.334;2023-08-21T12:29:08;7.72;;;4.30;;
12474;SDS011;6302;42.624;23.334;2023-08-21T12:31:35;5.07;;;4.57;;
12474;SDS011;6302;42.624;23.334;2023-08-21T12:34:02;7.53;;;5.72;;
12474;SDS011;6302;42.624;23.334;2023-08-21T12:36:30;4.57;;;4.28;;
12474;SDS011;6302;42.624;23.334;2023-08-21T12:38:56;13.55;;;4.57;;
12474;SDS011;6302;42.624;23.334;2023-08-21T12:41:23;8.30;;;4.60;;
12474;SDS011;6302;42.624;23.334;2023-08-21T12:43:51;5.03;;;4.50;;
12474;SDS011;6302;42.624;23.334;2023-08-21T12:46:18;6.10;;;4.38;;
12474;SDS011;6302;42.624;23.334;2023-08-21T12:48:45;8.10;;;4.80;;
12474;SDS011;6302;42.624;23.334;2023-08-21T12:51:11;9.98;;;4.63;;
12474;SDS011;6302;42.624;23.334;2023-08-21T12:53:38;5.35;;;4.45;;
12474;SDS011;6302;42.624;23.334;2023-08-21T12:56:05;5.80;;;4.38;;
12474;SDS011;6302;42.624;23.334;2023-08-21T12:58:32;9.60;;;4.40;;
12474;SDS011;6302;42.624;23.334;2023-08-21T13:01:00;6.97;;;4.60;;
12474;SDS011;6302;42.624;23.334;2023-08-21T13:03:28;8.88;;;5.20;;
12474;SDS011;6302;42.624;23.334;2023-08-21T13:05:55;7.18;;;4.75;;
12474;SDS011;6302;42.624;23.334;2023-08-21T13:08:21;7.55;;;4.65;;
12474;SDS011;6302;42.624;23.334;2023-08-21T13:10:48;9.27;;;4.97;;
12474;SDS011;6302;42.624;23.334;2023-08-21T13:13:15;5.35;;;4.85;;
12474;SDS011;6302;42.624;23.334;2023-08-21T13:15:42;7.63;;;4.40;;
12474;SDS011;6302;42.624;23.334;2023-08-21T13:18:11;6.32;;;4.88;;
12474;SDS011;6302;42.624;23.334;2023-08-21T13:20:39;5.38;;;4.50;;
12474;SDS011;6302;42.624;23.334;2023-08-21T13:23:06;7.70;;;4.60;;
12474;SDS011;6302;42.624;23.334;2023-08-21T13:25:33;5.35;;;4.85;;
12474;SDS011;6302;42.624;23.334;2023-08-21T13:28:01;5.22;;;4.72;;
12474;SDS011;6302;42.624;23.334;2023-08-21T13:30:28;5.05;;;4.50;;
12474;SDS011;6302;42.624;23.334;2023-08-21T13:32:55;5.43;;;4.90;;
12474;SDS011;6302;42.624;23.334;2023-08-21T13:35:23;7.32;;;4.60;;
12474;SDS011;6302;42.624;23.334;2023-08-21T13:37:50;6.95;;;4.57;;
12474;SDS011;6302;42.624;23.334;2023-08-21T13:40:17;8.57;;;4.38;;
12474;SDS011;6302;42.624;23.334;2023-08-21T13:42:44;5.25;;;4.40;;
12474;SDS011;6302;42.624;23.334;2023-08-21T13:45:13;6.00;;;4.22;;
12474;SDS011;6302;42.624;23.334;2023-08-21T13:47:42;5.13;;;4.63;;
12474;SDS011;6302;42.624;23.334;2023-08-21T13:50:10;6.53;;;4.40;;
12474;SDS011;6302;42.624;23.334;2023-08-21T13:52:38;6.35;;;4.60;;
12474;SDS011;6302;42.624;23.334;2023-08-21T13:55:06;6.85;;;4.90;;
12474;SDS011;6302;42.624;23.334;2023-08-21T13:57:34;4.95;;;4.20;;
12474;SDS011;6302;42.624;23.334;2023-08-21T14:00:01;4.68;;;4.28;;
12474;SDS011;6302;42.624;23.334;2023-08-21T14:02:32;5.88;;;4.75;;
12474;SDS011;6302;42.624;23.334;2023-08-21T14:04:59;7.20;;;4.47;;
12474;SDS011;6302;42.624;23.334;2023-08-21T14:07:26;5.28;;;4.88;;
12474;SDS011;6302;42.624;23.334;2023-08-21T14:09:54;4.93;;;4.30;;
12474;SDS011;6302;42.624;23.334;2023-08-21T14:12:21;6.20;;;4.68;;
12474;SDS011;6302;42.624;23.334;2023-08-21T14:14:48;7.47;;;4.40;;
12474;SDS011;6302;42.624;23.334;2023-08-21T14:17:15;5.32;;;4.28;;
12474;SDS011;6302;42.624;23.334;2023-08-21T14:19:42;7.05;;;4.35;;
12474;SDS011;6302;42.624;23.334;2023-08-21T14:22:09;5.32;;;4.93;;
12474;SDS011;6302;42.624;23.334;2023-08-21T14:24:36;5.55;;;5.05;;
12474;SDS011;6302;42.624;23.334;2023-08-21T14:27:04;5.65;;;4.32;;
12474;SDS011;6302;42.624;23.334;2023-08-21T14:29:31;7.22;;;4.70;;
12474;SDS011;6302;42.624;23.334;2023-08-21T14:31:58;5.60;;;5.00;;
12474;SDS011;6302;42.624;23.334;2023-08-21T14:34:25;5.22;;;4.72;;
12474;SDS011;6302;42.624;23.334;2023-08-21T14:36:52;7.13;;;4.80;;
12474;SDS011;6302;42.624;23.334;2023-08-21T14:39:19;5.90;;;4.57;;
12474;SDS011;6302;42.624;23.334;2023-08-21T14:41:46;4.70;;;4.15;;
12474;SDS011;6302;42.624;23.334;2023-08-21T14:44:14;4.85;;;4.45;;
12474;SDS011;6302;42.624;23.334;2023-08-21T14:46:41;6.57;;;4.72;;
12474;SDS011;6302;42.624;23.334;2023-08-21T14:49:07;5.70;;;4.25;;